sensor_id;sensor_type;location;lat;lon;timestamp;pressure;altitude;pressure_sealevel;temperature
71463;BMP180;59266;52.608;13.260;2023-03-14T00:01:17;98812.00;;;12.30
71463;BMP180;59266;52.608;13.260;2023-03-14T00:03:44;98802.00;;;12.20
71463;BMP180;59266;52.608;13.260;2023-03-14T00:06:11;98799.00;;;12.20
71463;BMP180;59266;52.608;13.260;2023-03-14T00:08:39;98792.00;;;12.20
71463;BMP180;59266;52.608;13.260;2023-03-14T00:11:10;98780.00;;;12.20
71463;BMP180;59266;52.608;13.260;2023-03-14T00:13:38;98800.00;;;12.30
71463;BMP180;59266;52.608;13.260;2023-03-14T00:16:21;98805.00;;;12.20
71463;BMP180;59266;52.608;13.260;2023-03-14T00:18:47;98781.00;;;12.20
71463;BMP180;59266;52.608;13.260;2023-03-14T00:21:16;98781.00;;;12.30
71463;BMP180;59266;52.608;13.260;2023-03-14T00:23:43;98771.00;;;12.20
71463;BMP180;59266;52.608;13.260;2023-03-14T00:26:12;98755.00;;;12.10
71463;BMP180;59266;52.608;13.260;2023-03-14T00:28:40;98759.00;;;12.00
71463;BMP180;59266;52.608;13.260;2023-03-14T00:31:08;98743.00;;;12.00
71463;BMP180;59266;52.608;13.260;2023-03-14T00:33:35;98741.00;;;12.00
71463;BMP180;59266;52.608;13.260;2023-03-14T00:36:04;98737.00;;;11.90
71463;BMP180;59266;52.608;13.260;2023-03-14T00:38:32;98735.00;;;11.90
71463;BMP180;59266;52.608;13.260;2023-03-14T00:40:59;98735.00;;;12.00
71463;BMP180;59266;52.608;13.260;2023-03-14T00:43:28;98733.00;;;11.90
71463;BMP180;59266;52.608;13.260;2023-03-14T00:45:55;98746.00;;;11.90
71463;BMP180;59266;52.608;13.260;2023-03-14T00:48:22;98740.00;;;11.90
71463;BMP180;59266;52.608;13.260;2023-03-14T00:50:48;98730.00;;;11.90
71463;BMP180;59266;52.608;13.260;2023-03-14T00:53:15;98719.00;;;11.80
71463;BMP180;59266;52.608;13.260;2023-03-14T00:55:43;98716.00;;;11.70
71463;BMP180;59266;52.608;13.260;2023-03-14T00:58:11;98712.00;;;11.70
71463;BMP180;59266;52.608;13.260;2023-03-14T01:00:39;98699.00;;;11.80
71463;BMP180;59266;52.608;13.260;2023-03-14T01:03:06;98702.00;;;11.80
71463;BMP180;59266;52.608;13.260;2023-03-14T01:05:33;98703.00;;;11.70
71463;BMP180;59266;52.608;13.260;2023-03-14T01:08:04;98698.00;;;11.70
71463;BMP180;59266;52.608;13.260;2023-03-14T01:10:30;98691.00;;;11.70
71463;BMP180;59266;52.608;13.260;2023-03-14T01:12:57;98684.00;;;11.70
71463;BMP180;59266;52.608;13.260;2023-03-14T01:15:23;98698.00;;;11.70
71463;BMP180;59266;52.608;13.260;2023-03-14T01:17:50;98718.00;;;11.60
71463;BMP180;59266;52.608;13.260;2023-03-14T01:20:17;98717.00;;;11.60
71463;BMP180;59266;52.608;13.260;2023-03-14T01:22:44;98731.00;;;11.60
71463;BMP180;59266;52.608;13.260;2023-03-14T01:25:13;98739.00;;;11.60
71463;BMP180;59266;52.608;13.260;2023-03-14T01:27:40;98757.00;;;11.50
71463;BMP180;59266;52.608;13.260;2023-03-14T01:30:07;98771.00;;;11.60
71463;BMP180;59266;52.608;13.260;2023-03-14T01:32:34;98766.00;;;11.60
71463;BMP180;59266;52.608;13.260;2023-03-14T01:35:01;98759.00;;;11.60
71463;BMP180;59266;52.608;13.260;2023-03-14T01:37:27;98763.00;;;11.50
71463;BMP180;59266;52.608;13.260;2023-03-14T01:39:54;98760.00;;;11.50
71463;BMP180;59266;52.608;13.260;2023-03-14T01:42:21;98769.00;;;11.50
71463;BMP180;59266;52.608;13.260;2023-03-14T01:44:53;98771.00;;;11.50
71463;BMP180;59266;52.608;13.260;2023-03-14T01:47:20;98770.00;;;11.50
71463;BMP180;59266;52.608;13.260;2023-03-14T01:49:56;98784.00;;;11.50
71463;BMP180;59266;52.608;13.260;2023-03-14T01:52:32;98794.00;;;11.50
71463;BMP180;59266;52.608;13.260;2023-03-14T01:55:05;98780.00;;;11.50
71463;BMP180;59266;52.608;13.260;2023-03-14T01:57:37;98768.00;;;11.50
71463;BMP180;59266;52.608;13.260;2023-03-14T02:00:21;98760.00;;;11.50
71463;BMP180;59266;52.608;13.260;2023-03-14T02:03:11;98754.00;;;11.50
71463;BMP180;59266;52.608;13.260;2023-03-14T02:05:40;98745.00;;;11.50
71463;BMP180;59266;52.608;13.260;2023-03-14T02:08:10;98750.00;;;11.50
71463;BMP180;59266;52.608;13.260;2023-03-14T02:10:41;98746.00;;;11.50
71463;BMP180;59266;52.608;13.260;2023-03-14T02:13:08;98744.00;;;11.50
71463;BMP180;59266;52.608;13.260;2023-03-14T02:15:35;98743.00;;;11.40
71463;BMP180;59266;52.608;13.260;2023-03-14T02:18:03;98749.00;;;11.40
71463;BMP180;59266;52.608;13.260;2023-03-14T02:20:48;98747.00;;;11.30
71463;BMP180;59266;52.608;13.260;2023-03-14T02:23:35;98735.00;;;11.30
71463;BMP180;59266;52.608;13.260;2023-03-14T02:26:15;98726.00;;;11.30
71463;BMP180;59266;52.608;13.260;2023-03-14T02:28:44;98731.00;;;11.40
71463;BMP180;59266;52.608;13.260;2023-03-14T02:31:11;98730.00;;;11.40
71463;BMP180;59266;52.608;13.260;2023-03-14T02:33:38;98723.00;;;11.40
71463;BMP180;59266;52.608;13.260;2023-03-14T02:36:07;98729.00;;;11.40
71463;BMP180;59266;52.608;13.260;2023-03-14T02:38:50;98720.00;;;11.50
71463;BMP180;59266;52.608;13.260;2023-03-14T02:41:21;98708.00;;;11.50
71463;BMP180;59266;52.608;13.260;2023-03-14T02:43:48;98714.00;;;11.50
71463;BMP180;59266;52.608;13.260;2023-03-14T02:46:18;98709.00;;;11.60
71463;BMP180;59266;52.608;13.260;2023-03-14T02:48:53;98696.00;;;11.60
71463;BMP180;59266;52.608;13.260;2023-03-14T02:51:21;98703.00;;;11.50
71463;BMP180;59266;52.608;13.260;2023-03-14T02:53:48;98689.00;;;11.50
71463;BMP180;59266;52.608;13.260;2023-03-14T02:56:15;98692.00;;;11.40
71463;BMP180;59266;52.608;13.260;2023-03-14T02:58:41;98683.00;;;11.50
71463;BMP180;59266;52.608;13.260;2023-03-14T03:01:08;98671.00;;;11.40
71463;BMP180;59266;52.608;13.260;2023-03-14T03:03:34;98669.00;;;11.40
71463;BMP180;59266;52.608;13.260;2023-03-14T03:06:01;98658.00;;;11.30
71463;BMP180;59266;52.608;13.260;2023-03-14T03:08:28;98648.00;;;11.30
71463;BMP180;59266;52.608;13.260;2023-03-14T03:10:57;98653.00;;;11.20
71463;BMP180;59266;52.608;13.260;2023-03-14T03:13:23;98638.00;;;11.30
71463;BMP180;59266;52.608;13.260;2023-03-14T03:15:50;98635.00;;;11.20
71463;BMP180;59266;52.608;13.260;2023-03-14T03:18:17;98641.00;;;11.20
71463;BMP180;59266;52.608;13.260;2023-03-14T03:20:43;98651.00;;;11.20
71463;BMP180;59266;52.608;13.260;2023-03-14T03:23:10;98642.00;;;11.20
71463;BMP180;59266;52.608;13.260;2023-03-14T03:25:36;98641.00;;;11.10
71463;BMP180;59266;52.608;13.260;2023-03-14T03:28:03;98642.00;;;11.20
71463;BMP180;59266;52.608;13.260;2023-03-14T03:30:41;98647.00;;;11.20
71463;BMP180;59266;52.608;13.260;2023-03-14T03:33:08;98661.00;;;11.20
71463;BMP180;59266;52.608;13.260;2023-03-14T03:35:42;98670.00;;;11.20
71463;BMP180;59266;52.608;13.260;2023-03-14T03:38:08;98655.00;;;11.10
71463;BMP180;59266;52.608;13.260;2023-03-14T03:40:35;98661.00;;;11.10
71463;BMP180;59266;52.608;13.260;2023-03-14T03:43:01;98669.00;;;11.10
71463;BMP180;59266;52.608;13.260;2023-03-14T03:45:30;98653.00;;;11.00
71463;BMP180;59266;52.608;13.260;2023-03-14T03:47:56;98657.00;;;11.00
71463;BMP180;59266;52.608;13.260;2023-03-14T03:50:23;98644.00;;;11.00
71463;BMP180;59266;52.608;13.260;2023-03-14T03:52:49;98638.00;;;11.00
71463;BMP180;59266;52.608;13.260;2023-03-14T03:55:16;98658.00;;;11.00
71463;BMP180;59266;52.608;13.260;2023-03-14T03:57:42;98642.00;;;11.00
71463;BMP180;59266;52.608;13.260;2023-03-14T04:00:09;98642.00;;;11.00
71463;BMP180;59266;52.608;13.260;2023-03-14T04:02:38;98634.00;;;11.00
71463;BMP180;59266;52.608;13.260;2023-03-14T04:05:04;98635.00;;;11.00
71463;BMP180;59266;52.608;13.260;2023-03-14T04:07:32;98650.00;;;11.00
71463;BMP180;59266;52.608;13.260;2023-03-14T04:09:59;98650.00;;;11.00
71463;BMP180;59266;52.608;13.260;2023-03-14T04:12:25;98628.00;;;10.90
71463;BMP180;59266;52.608;13.260;2023-03-14T04:14:52;98649.00;;;10.90
71463;BMP180;59266;52.608;13.260;2023-03-14T04:17:18;98651.00;;;11.00
71463;BMP180;59266;52.608;13.260;2023-03-14T04:19:46;98639.00;;;11.00
71463;BMP180;59266;52.608;13.260;2023-03-14T04:22:17;98638.00;;;11.00
71463;BMP180;59266;52.608;13.260;2023-03-14T04:24:44;98638.00;;;11.00
71463;BMP180;59266;52.608;13.260;2023-03-14T04:27:10;98630.00;;;11.00
71463;BMP180;59266;52.608;13.260;2023-03-14T04:29:37;98629.00;;;11.10
71463;BMP180;59266;52.608;13.260;2023-03-14T04:32:03;98620.00;;;11.10
71463;BMP180;59266;52.608;13.260;2023-03-14T04:34:30;98626.00;;;11.00
71463;BMP180;59266;52.608;13.260;2023-03-14T04:36:56;98615.00;;;11.10
71463;BMP180;59266;52.608;13.260;2023-03-14T04:39:23;98612.00;;;11.10
71463;BMP180;59266;52.608;13.260;2023-03-14T04:41:49;98597.00;;;11.10
71463;BMP180;59266;52.608;13.260;2023-03-14T04:44:16;98602.00;;;11.00
71463;BMP180;59266;52.608;13.260;2023-03-14T04:46:42;98602.00;;;11.10
71463;BMP180;59266;52.608;13.260;2023-03-14T04:49:09;98584.00;;;11.10
71463;BMP180;59266;52.608;13.260;2023-03-14T04:51:35;98578.00;;;11.10
71463;BMP180;59266;52.608;13.260;2023-03-14T04:54:02;98580.00;;;11.10
71463;BMP180;59266;52.608;13.260;2023-03-14T04:56:28;98578.00;;;11.00
71463;BMP180;59266;52.608;13.260;2023-03-14T04:58:55;98577.00;;;11.10
71463;BMP180;59266;52.608;13.260;2023-03-14T05:01:21;98596.00;;;11.20
71463;BMP180;59266;52.608;13.260;2023-03-14T05:03:48;98585.00;;;11.10
71463;BMP180;59266;52.608;13.260;2023-03-14T05:06:14;98599.00;;;11.20
71463;BMP180;59266;52.608;13.260;2023-03-14T05:08:41;98593.00;;;11.10
71463;BMP180;59266;52.608;13.260;2023-03-14T05:11:09;98592.00;;;11.10
71463;BMP180;59266;52.608;13.260;2023-03-14T05:13:36;98587.00;;;11.20
71463;BMP180;59266;52.608;13.260;2023-03-14T05:16:07;98587.00;;;11.20
71463;BMP180;59266;52.608;13.260;2023-03-14T05:18:34;98584.00;;;11.20
71463;BMP180;59266;52.608;13.260;2023-03-14T05:21:02;98579.00;;;11.20
71463;BMP180;59266;52.608;13.260;2023-03-14T05:23:28;98574.00;;;11.10
71463;BMP180;59266;52.608;13.260;2023-03-14T05:25:55;98573.00;;;11.20
71463;BMP180;59266;52.608;13.260;2023-03-14T05:28:22;98580.00;;;11.10
71463;BMP180;59266;52.608;13.260;2023-03-14T05:30:48;98581.00;;;11.20
71463;BMP180;59266;52.608;13.260;2023-03-14T05:33:15;98584.00;;;11.10
71463;BMP180;59266;52.608;13.260;2023-03-14T05:35:42;98572.00;;;11.10
71463;BMP180;59266;52.608;13.260;2023-03-14T05:38:09;98569.00;;;11.10
71463;BMP180;59266;52.608;13.260;2023-03-14T05:40:35;98562.00;;;11.10
71463;BMP180;59266;52.608;13.260;2023-03-14T05:43:02;98561.00;;;11.20
71463;BMP180;59266;52.608;13.260;2023-03-14T05:45:28;98560.00;;;11.10
71463;BMP180;59266;52.608;13.260;2023-03-14T05:47:55;98574.00;;;11.10
71463;BMP180;59266;52.608;13.260;2023-03-14T05:50:22;98572.00;;;11.20
71463;BMP180;59266;52.608;13.260;2023-03-14T05:52:48;98574.00;;;11.10
71463;BMP180;59266;52.608;13.260;2023-03-14T05:55:15;98577.00;;;11.20
71463;BMP180;59266;52.608;13.260;2023-03-14T05:57:41;98572.00;;;11.20
71463;BMP180;59266;52.608;13.260;2023-03-14T06:00:08;98572.00;;;11.20
71463;BMP180;59266;52.608;13.260;2023-03-14T06:02:35;98567.00;;;11.20
71463;BMP180;59266;52.608;13.260;2023-03-14T06:05:01;98568.00;;;11.20
71463;BMP180;59266;52.608;13.260;2023-03-14T06:07:28;98570.00;;;11.20
71463;BMP180;59266;52.608;13.260;2023-03-14T06:09:54;98571.00;;;11.30
71463;BMP180;59266;52.608;13.260;2023-03-14T06:12:21;98565.00;;;11.30
71463;BMP180;59266;52.608;13.260;2023-03-14T06:14:47;98562.00;;;11.30
71463;BMP180;59266;52.608;13.260;2023-03-14T06:17:14;98559.00;;;11.30
71463;BMP180;59266;52.608;13.260;2023-03-14T06:19:41;98561.00;;;11.40
71463;BMP180;59266;52.608;13.260;2023-03-14T06:22:07;98559.00;;;11.40
71463;BMP180;59266;52.608;13.260;2023-03-14T06:24:33;98551.00;;;11.50
71463;BMP180;59266;52.608;13.260;2023-03-14T06:27:00;98556.00;;;11.50
71463;BMP180;59266;52.608;13.260;2023-03-14T06:29:29;98550.00;;;11.60
71463;BMP180;59266;52.608;13.260;2023-03-14T06:31:56;98565.00;;;11.70
71463;BMP180;59266;52.608;13.260;2023-03-14T06:34:26;98551.00;;;11.70
71463;BMP180;59266;52.608;13.260;2023-03-14T06:36:53;98558.00;;;11.70
71463;BMP180;59266;52.608;13.260;2023-03-14T06:39:20;98572.00;;;11.80
71463;BMP180;59266;52.608;13.260;2023-03-14T06:41:47;98576.00;;;11.90
71463;BMP180;59266;52.608;13.260;2023-03-14T06:44:13;98569.00;;;12.00
71463;BMP180;59266;52.608;13.260;2023-03-14T06:46:40;98571.00;;;11.90
71463;BMP180;59266;52.608;13.260;2023-03-14T06:49:06;98574.00;;;12.10
71463;BMP180;59266;52.608;13.260;2023-03-14T06:51:33;98578.00;;;12.10
71463;BMP180;59266;52.608;13.260;2023-03-14T06:54:00;98586.00;;;12.20
71463;BMP180;59266;52.608;13.260;2023-03-14T06:56:26;98589.00;;;12.10
71463;BMP180;59266;52.608;13.260;2023-03-14T06:58:53;98606.00;;;12.20
71463;BMP180;59266;52.608;13.260;2023-03-14T07:01:24;98584.00;;;12.40
71463;BMP180;59266;52.608;13.260;2023-03-14T07:03:51;98589.00;;;12.70
71463;BMP180;59266;52.608;13.260;2023-03-14T07:06:18;98588.00;;;12.70
71463;BMP180;59266;52.608;13.260;2023-03-14T07:08:45;98596.00;;;12.70
71463;BMP180;59266;52.608;13.260;2023-03-14T07:11:11;98595.00;;;12.80
71463;BMP180;59266;52.608;13.260;2023-03-14T07:13:39;98599.00;;;12.70
71463;BMP180;59266;52.608;13.260;2023-03-14T07:16:06;98607.00;;;12.60
71463;BMP180;59266;52.608;13.260;2023-03-14T07:18:33;98613.00;;;12.50
71463;BMP180;59266;52.608;13.260;2023-03-14T07:20:59;98608.00;;;12.80
71463;BMP180;59266;52.608;13.260;2023-03-14T07:23:26;98601.00;;;13.30
71463;BMP180;59266;52.608;13.260;2023-03-14T07:25:52;98611.00;;;13.20
71463;BMP180;59266;52.608;13.260;2023-03-14T07:28:20;98608.00;;;13.80
71463;BMP180;59266;52.608;13.260;2023-03-14T07:30:47;98604.00;;;15.50
71463;BMP180;59266;52.608;13.260;2023-03-14T07:33:14;98605.00;;;15.90
71463;BMP180;59266;52.608;13.260;2023-03-14T07:35:41;98622.00;;;15.50
71463;BMP180;59266;52.608;13.260;2023-03-14T07:38:07;98627.00;;;15.10
71463;BMP180;59266;52.608;13.260;2023-03-14T07:40:34;98626.00;;;14.90
71463;BMP180;59266;52.608;13.260;2023-03-14T07:43:00;98633.00;;;14.20
71463;BMP180;59266;52.608;13.260;2023-03-14T07:45:27;98605.00;;;16.40
71463;BMP180;59266;52.608;13.260;2023-03-14T07:47:54;98608.00;;;17.60
71463;BMP180;59266;52.608;13.260;2023-03-14T07:50:26;98599.00;;;17.90
71463;BMP180;59266;52.608;13.260;2023-03-14T07:52:53;98618.00;;;19.30
71463;BMP180;59266;52.608;13.260;2023-03-14T07:55:20;98617.00;;;19.30
71463;BMP180;59266;52.608;13.260;2023-03-14T07:57:47;98624.00;;;18.90
71463;BMP180;59266;52.608;13.260;2023-03-14T08:00:13;98599.00;;;18.70
71463;BMP180;59266;52.608;13.260;2023-03-14T08:02:41;98608.00;;;20.40
71463;BMP180;59266;52.608;13.260;2023-03-14T08:05:09;98607.00;;;21.70
71463;BMP180;59266;52.608;13.260;2023-03-14T08:07:35;98617.00;;;20.20
71463;BMP180;59266;52.608;13.260;2023-03-14T08:10:02;98610.00;;;18.40
71463;BMP180;59266;52.608;13.260;2023-03-14T08:12:29;98622.00;;;16.70
71463;BMP180;59266;52.608;13.260;2023-03-14T08:14:56;98617.00;;;16.20
71463;BMP180;59266;52.608;13.260;2023-03-14T08:17:22;98614.00;;;16.10
71463;BMP180;59266;52.608;13.260;2023-03-14T08:19:49;98621.00;;;15.50
71463;BMP180;59266;52.608;13.260;2023-03-14T08:22:15;98616.00;;;15.40
71463;BMP180;59266;52.608;13.260;2023-03-14T08:24:45;98617.00;;;15.30
71463;BMP180;59266;52.608;13.260;2023-03-14T08:27:12;98624.00;;;14.90
71463;BMP180;59266;52.608;13.260;2023-03-14T08:29:41;98623.00;;;14.80
71463;BMP180;59266;52.608;13.260;2023-03-14T08:32:08;98629.00;;;14.90
71463;BMP180;59266;52.608;13.260;2023-03-14T08:34:35;98631.00;;;14.80
71463;BMP180;59266;52.608;13.260;2023-03-14T08:37:02;98649.00;;;14.00
71463;BMP180;59266;52.608;13.260;2023-03-14T08:39:36;98632.00;;;14.00
71463;BMP180;59266;52.608;13.260;2023-03-14T08:42:03;98639.00;;;13.80
71463;BMP180;59266;52.608;13.260;2023-03-14T08:44:29;98641.00;;;13.80
71463;BMP180;59266;52.608;13.260;2023-03-14T08:46:56;98634.00;;;14.00
71463;BMP180;59266;52.608;13.260;2023-03-14T08:49:23;98644.00;;;14.60
71463;BMP180;59266;52.608;13.260;2023-03-14T08:51:50;98640.00;;;14.10
71463;BMP180;59266;52.608;13.260;2023-03-14T08:54:16;98636.00;;;14.30
71463;BMP180;59266;52.608;13.260;2023-03-14T08:56:43;98638.00;;;14.40
71463;BMP180;59266;52.608;13.260;2023-03-14T08:59:10;98628.00;;;14.70
71463;BMP180;59266;52.608;13.260;2023-03-14T09:01:37;98642.00;;;14.50
71463;BMP180;59266;52.608;13.260;2023-03-14T09:04:06;98635.00;;;14.50
71463;BMP180;59266;52.608;13.260;2023-03-14T09:06:33;98647.00;;;14.80
71463;BMP180;59266;52.608;13.260;2023-03-14T09:08:59;98641.00;;;14.90
71463;BMP180;59266;52.608;13.260;2023-03-14T09:11:26;98637.00;;;15.30
71463;BMP180;59266;52.608;13.260;2023-03-14T09:13:52;98620.00;;;15.00
71463;BMP180;59266;52.608;13.260;2023-03-14T09:16:19;98623.00;;;14.90
71463;BMP180;59266;52.608;13.260;2023-03-14T09:18:46;98606.00;;;14.90
71463;BMP180;59266;52.608;13.260;2023-03-14T09:21:12;98613.00;;;15.00
71463;BMP180;59266;52.608;13.260;2023-03-14T09:23:39;98595.00;;;15.80
71463;BMP180;59266;52.608;13.260;2023-03-14T09:26:06;98586.00;;;18.30
71463;BMP180;59266;52.608;13.260;2023-03-14T09:28:33;98601.00;;;19.30
71463;BMP180;59266;52.608;13.260;2023-03-14T09:31:09;98604.00;;;19.10
71463;BMP180;59266;52.608;13.260;2023-03-14T09:33:36;98583.00;;;17.60
71463;BMP180;59266;52.608;13.260;2023-03-14T09:36:04;98598.00;;;18.10
71463;BMP180;59266;52.608;13.260;2023-03-14T09:38:31;98557.00;;;18.10
71463;BMP180;59266;52.608;13.260;2023-03-14T09:41:01;98593.00;;;17.40
71463;BMP180;59266;52.608;13.260;2023-03-14T09:43:31;98600.00;;;16.70
71463;BMP180;59266;52.608;13.260;2023-03-14T09:46:01;98602.00;;;16.00
71463;BMP180;59266;52.608;13.260;2023-03-14T09:48:31;98604.00;;;16.00
71463;BMP180;59266;52.608;13.260;2023-03-14T09:51:02;98599.00;;;15.90
71463;BMP180;59266;52.608;13.260;2023-03-14T09:53:43;98596.00;;;15.80
71463;BMP180;59266;52.608;13.260;2023-03-14T09:58:54;98603.00;;;16.00
71463;BMP180;59266;52.608;13.260;2023-03-14T10:01:27;98610.00;;;15.90
71463;BMP180;59266;52.608;13.260;2023-03-14T10:04:01;98603.00;;;15.80
71463;BMP180;59266;52.608;13.260;2023-03-14T10:06:30;98607.00;;;16.10
71463;BMP180;59266;52.608;13.260;2023-03-14T10:08:57;98609.00;;;16.60
71463;BMP180;59266;52.608;13.260;2023-03-14T10:11:24;98607.00;;;16.20
71463;BMP180;59266;52.608;13.260;2023-03-14T10:14:05;98607.00;;;15.70
71463;BMP180;59266;52.608;13.260;2023-03-14T10:16:34;98617.00;;;15.80
71463;BMP180;59266;52.608;13.260;2023-03-14T10:19:07;98616.00;;;15.50
71463;BMP180;59266;52.608;13.260;2023-03-14T10:21:40;98622.00;;;15.20
71463;BMP180;59266;52.608;13.260;2023-03-14T10:24:26;98622.00;;;15.30
71463;BMP180;59266;52.608;13.260;2023-03-14T10:26:55;98631.00;;;15.30
71463;BMP180;59266;52.608;13.260;2023-03-14T10:29:24;98616.00;;;15.10
71463;BMP180;59266;52.608;13.260;2023-03-14T10:31:54;98623.00;;;15.00
71463;BMP180;59266;52.608;13.260;2023-03-14T10:34:24;98616.00;;;15.20
71463;BMP180;59266;52.608;13.260;2023-03-14T10:36:53;98621.00;;;14.90
71463;BMP180;59266;52.608;13.260;2023-03-14T10:39:40;98618.00;;;14.90
71463;BMP180;59266;52.608;13.260;2023-03-14T10:42:21;98620.00;;;15.10
71463;BMP180;59266;52.608;13.260;2023-03-14T10:44:59;98623.00;;;15.20
71463;BMP180;59266;52.608;13.260;2023-03-14T10:47:28;98619.00;;;14.90
71463;BMP180;59266;52.608;13.260;2023-03-14T10:49:56;98622.00;;;15.10
71463;BMP180;59266;52.608;13.260;2023-03-14T10:52:28;98616.00;;;14.90
71463;BMP180;59266;52.608;13.260;2023-03-14T10:55:13;98620.00;;;15.00
71463;BMP180;59266;52.608;13.260;2023-03-14T10:57:41;98623.00;;;14.70
71463;BMP180;59266;52.608;13.260;2023-03-14T11:00:18;98623.00;;;14.80
71463;BMP180;59266;52.608;13.260;2023-03-14T11:03:10;98620.00;;;14.70
71463;BMP180;59266;52.608;13.260;2023-03-14T11:05:57;98627.00;;;14.60
71463;BMP180;59266;52.608;13.260;2023-03-14T11:08:39;98623.00;;;14.50
71463;BMP180;59266;52.608;13.260;2023-03-14T11:11:19;98615.00;;;14.70
71463;BMP180;59266;52.608;13.260;2023-03-14T11:22:05;98625.00;;;14.30
71463;BMP180;59266;52.608;13.260;2023-03-14T11:24:48;98624.00;;;14.40
71463;BMP180;59266;52.608;13.260;2023-03-14T11:27:24;98620.00;;;14.50
71463;BMP180;59266;52.608;13.260;2023-03-14T11:30:03;98614.00;;;14.50
71463;BMP180;59266;52.608;13.260;2023-03-14T11:35:35;98622.00;;;14.50
71463;BMP180;59266;52.608;13.260;2023-03-14T11:38:18;98618.00;;;14.60
71463;BMP180;59266;52.608;13.260;2023-03-14T11:40:48;98615.00;;;14.40
71463;BMP180;59266;52.608;13.260;2023-03-14T11:43:20;98617.00;;;14.50
71463;BMP180;59266;52.608;13.260;2023-03-14T11:45:51;98608.00;;;14.50
71463;BMP180;59266;52.608;13.260;2023-03-14T11:51:24;98605.00;;;14.50
71463;BMP180;59266;52.608;13.260;2023-03-14T11:54:00;98595.00;;;14.20
71463;BMP180;59266;52.608;13.260;2023-03-14T11:56:34;98618.00;;;14.20
71463;BMP180;59266;52.608;13.260;2023-03-14T11:59:21;98622.00;;;13.90
71463;BMP180;59266;52.608;13.260;2023-03-14T12:01:53;98622.00;;;13.70
71463;BMP180;59266;52.608;13.260;2023-03-14T12:04:31;98628.00;;;13.30
71463;BMP180;59266;52.608;13.260;2023-03-14T12:07:03;98637.00;;;13.00
71463;BMP180;59266;52.608;13.260;2023-03-14T12:09:35;98629.00;;;12.90
71463;BMP180;59266;52.608;13.260;2023-03-14T12:12:03;98618.00;;;13.10
71463;BMP180;59266;52.608;13.260;2023-03-14T12:14:33;98624.00;;;13.30
71463;BMP180;59266;52.608;13.260;2023-03-14T12:17:18;98609.00;;;13.30
71463;BMP180;59266;52.608;13.260;2023-03-14T12:19:46;98611.00;;;13.40
71463;BMP180;59266;52.608;13.260;2023-03-14T12:22:23;98595.00;;;14.10
71463;BMP180;59266;52.608;13.260;2023-03-14T12:24:54;98585.00;;;14.70
71463;BMP180;59266;52.608;13.260;2023-03-14T12:27:40;98589.00;;;14.90
71463;BMP180;59266;52.608;13.260;2023-03-14T12:30:38;98584.00;;;15.60
71463;BMP180;59266;52.608;13.260;2023-03-14T12:35:40;98578.00;;;15.10
71463;BMP180;59266;52.608;13.260;2023-03-14T12:38:17;98586.00;;;15.20
71463;BMP180;59266;52.608;13.260;2023-03-14T12:40:52;98583.00;;;15.50
71463;BMP180;59266;52.608;13.260;2023-03-14T12:43:33;98589.00;;;15.30
71463;BMP180;59266;52.608;13.260;2023-03-14T12:48:39;98597.00;;;14.90
71463;BMP180;59266;52.608;13.260;2023-03-14T12:51:17;98599.00;;;14.40
71463;BMP180;59266;52.608;13.260;2023-03-14T12:54:13;98594.00;;;14.50
71463;BMP180;59266;52.608;13.260;2023-03-14T12:56:54;98600.00;;;14.60
71463;BMP180;59266;52.608;13.260;2023-03-14T12:59:33;98572.00;;;14.50
71463;BMP180;59266;52.608;13.260;2023-03-14T13:04:35;98579.00;;;14.60
71463;BMP180;59266;52.608;13.260;2023-03-14T13:07:11;98579.00;;;14.70
71463;BMP180;59266;52.608;13.260;2023-03-14T13:09:54;98578.00;;;14.90
71463;BMP180;59266;52.608;13.260;2023-03-14T13:12:49;98570.00;;;15.00
71463;BMP180;59266;52.608;13.260;2023-03-14T13:15:32;98564.00;;;15.20
71463;BMP180;59266;52.608;13.260;2023-03-14T13:18:11;98538.00;;;15.60
71463;BMP180;59266;52.608;13.260;2023-03-14T13:20:59;98536.00;;;16.30
71463;BMP180;59266;52.608;13.260;2023-03-14T13:23:30;98512.00;;;15.90
71463;BMP180;59266;52.608;13.260;2023-03-14T13:25:59;98534.00;;;16.60
71463;BMP180;59266;52.608;13.260;2023-03-14T13:28:27;98518.00;;;16.80
71463;BMP180;59266;52.608;13.260;2023-03-14T13:31:01;98521.00;;;17.50
71463;BMP180;59266;52.608;13.260;2023-03-14T13:33:28;98521.00;;;16.70
71463;BMP180;59266;52.608;13.260;2023-03-14T13:35:57;98544.00;;;15.90
71463;BMP180;59266;52.608;13.260;2023-03-14T13:38:26;98548.00;;;15.90
71463;BMP180;59266;52.608;13.260;2023-03-14T13:40:55;98540.00;;;16.00
71463;BMP180;59266;52.608;13.260;2023-03-14T13:46:13;98542.00;;;15.90
71463;BMP180;59266;52.608;13.260;2023-03-14T13:48:44;98535.00;;;16.00
71463;BMP180;59266;52.608;13.260;2023-03-14T13:51:13;98537.00;;;16.00
71463;BMP180;59266;52.608;13.260;2023-03-14T13:53:51;98540.00;;;16.60
71463;BMP180;59266;52.608;13.260;2023-03-14T13:56:20;98534.00;;;15.90
71463;BMP180;59266;52.608;13.260;2023-03-14T13:58:47;98528.00;;;15.80
71463;BMP180;59266;52.608;13.260;2023-03-14T14:01:18;98520.00;;;16.30
71463;BMP180;59266;52.608;13.260;2023-03-14T14:03:47;98517.00;;;15.80
71463;BMP180;59266;52.608;13.260;2023-03-14T14:06:37;98493.00;;;16.70
71463;BMP180;59266;52.608;13.260;2023-03-14T14:09:16;98519.00;;;16.70
71463;BMP180;59266;52.608;13.260;2023-03-14T14:11:51;98514.00;;;17.20
71463;BMP180;59266;52.608;13.260;2023-03-14T14:14:50;98527.00;;;16.70
71463;BMP180;59266;52.608;13.260;2023-03-14T14:17:25;98519.00;;;16.60
71463;BMP180;59266;52.608;13.260;2023-03-14T14:19:53;98512.00;;;16.30
71463;BMP180;59266;52.608;13.260;2023-03-14T14:22:20;98518.00;;;16.20
71463;BMP180;59266;52.608;13.260;2023-03-14T14:24:47;98523.00;;;16.00
71463;BMP180;59266;52.608;13.260;2023-03-14T14:27:28;98522.00;;;15.90
71463;BMP180;59266;52.608;13.260;2023-03-14T14:30:03;98531.00;;;15.70
71463;BMP180;59266;52.608;13.260;2023-03-14T14:32:37;98527.00;;;15.60
71463;BMP180;59266;52.608;13.260;2023-03-14T14:35:06;98537.00;;;15.70
71463;BMP180;59266;52.608;13.260;2023-03-14T14:37:34;98557.00;;;15.40
71463;BMP180;59266;52.608;13.260;2023-03-14T14:40:16;98563.00;;;15.00